createdAt,value
2018-09-21T00:01:02.944Z,3.87
2018-09-21T00:03:33.482Z,3.67
2018-09-21T00:06:04.610Z,3.53
2018-09-21T00:08:35.334Z,3.73
2018-09-21T00:11:06.013Z,3.97
2018-09-21T00:13:36.903Z,4.07
2018-09-21T00:16:06.943Z,4.00
2018-09-21T00:18:37.561Z,3.90
2018-09-21T00:21:08.575Z,4.20
2018-09-21T00:23:39.537Z,3.87
2018-09-21T00:26:10.963Z,3.90
2018-09-21T00:28:45.204Z,4.10
2018-09-21T00:31:16.148Z,3.80
2018-09-21T00:33:47.526Z,4.13
2018-09-21T00:36:18.502Z,4.20
2018-09-21T00:38:49.222Z,4.10
2018-09-21T00:41:19.935Z,4.20
2018-09-21T00:43:50.771Z,4.33
2018-09-21T00:46:21.753Z,4.27
2018-09-21T00:48:52.727Z,4.20
2018-09-21T00:51:24.140Z,3.80
2018-09-21T00:53:54.905Z,4.23
2018-09-21T00:56:25.241Z,4.10
2018-09-21T00:58:56.487Z,3.93
2018-09-21T01:01:27.451Z,3.70
2018-09-21T01:03:58.423Z,3.70
2018-09-21T01:06:29.155Z,4.00
2018-09-21T01:08:59.849Z,4.27
2018-09-21T01:11:30.040Z,4.47
2018-09-21T01:14:00.562Z,4.27
2018-09-21T01:16:31.486Z,4.10
2018-09-21T01:19:02.446Z,4.40
2018-09-21T01:21:32.989Z,4.90
2018-09-21T01:24:04.502Z,4.03
2018-09-21T01:26:35.714Z,4.53
2018-09-21T01:29:06.811Z,4.80
2018-09-21T01:31:37.834Z,4.53
2018-09-21T01:34:09.449Z,4.43
2018-09-21T01:36:39.846Z,4.80
2018-09-21T01:39:11.536Z,4.43
2018-09-21T01:41:41.976Z,4.00
2018-09-21T01:44:12.760Z,4.20
2018-09-21T01:46:43.368Z,4.20
2018-09-21T01:49:13.926Z,4.10
2018-09-21T01:51:45.376Z,4.30
2018-09-21T01:54:16.117Z,4.50
2018-09-21T01:56:47.217Z,4.27
2018-09-21T01:59:17.893Z,4.53
2018-09-21T02:01:52.631Z,4.07
2018-09-21T02:04:28.857Z,4.00
2018-09-21T02:06:59.568Z,3.90
2018-09-21T02:09:30.372Z,4.10
2018-09-21T02:12:01.447Z,4.50
2018-09-21T02:14:32.531Z,4.13
2018-09-21T02:17:03.349Z,4.23
2018-09-21T02:19:33.941Z,4.27
2018-09-21T02:22:05.016Z,4.40
2018-09-21T02:24:35.936Z,4.27
2018-09-21T02:27:06.903Z,4.30
2018-09-21T02:29:37.983Z,4.17
2018-09-21T02:32:08.450Z,4.73
2018-09-21T02:34:39.298Z,4.70
2018-09-21T02:37:10.206Z,4.47
2018-09-21T02:39:41.532Z,4.50
2018-09-21T02:42:12.651Z,4.10
2018-09-21T02:44:43.915Z,4.33
2018-09-21T02:47:14.355Z,4.40
2018-09-21T02:49:45.444Z,4.40
2018-09-21T02:52:16.241Z,4.27
2018-09-21T02:54:47.188Z,4.53
2018-09-21T02:57:17.855Z,4.17
2018-09-21T02:59:48.826Z,4.23
2018-09-21T03:02:19.724Z,4.73
2018-09-21T03:04:55.241Z,4.37
2018-09-21T03:07:26.789Z,4.00
2018-09-21T03:09:57.765Z,4.17
2018-09-21T03:12:29.097Z,4.20
2018-09-21T03:14:59.923Z,4.30
2018-09-21T03:17:30.841Z,4.33
2018-09-21T03:20:02.093Z,3.93
2018-09-21T03:22:33.136Z,4.37
2018-09-21T03:25:04.130Z,4.40
2018-09-21T03:27:34.630Z,4.93
2018-09-21T03:30:05.873Z,4.43
2018-09-21T03:32:36.863Z,4.60
2018-09-21T03:35:07.623Z,4.57
2018-09-21T03:37:38.305Z,5.17
2018-09-21T03:40:08.615Z,5.10
2018-09-21T03:42:39.361Z,5.60
2018-09-21T03:45:10.185Z,4.20
2018-09-21T03:47:41.220Z,5.30
2018-09-21T03:50:11.992Z,4.40
2018-09-21T03:52:43.098Z,5.17
2018-09-21T03:55:13.776Z,4.37
2018-09-21T03:57:44.492Z,4.80
2018-09-21T04:00:15.599Z,4.27
2018-09-21T04:02:47.380Z,4.93
2018-09-21T04:05:18.692Z,4.23
2018-09-21T04:07:50.750Z,5.20
2018-09-21T04:10:23.475Z,4.53
2018-09-21T04:12:55.543Z,5.10
2018-09-21T04:15:26.485Z,4.67
2018-09-21T04:17:57.667Z,4.90
2018-09-21T04:20:28.692Z,4.70
2018-09-21T04:23:03.881Z,4.50
2018-09-21T04:25:34.840Z,4.63
2018-09-21T04:28:05.846Z,4.90
2018-09-21T04:30:36.954Z,4.30
2018-09-21T04:33:07.357Z,4.13
2018-09-21T04:35:39.309Z,4.57
2018-09-21T04:38:11.299Z,4.70
2018-09-21T04:40:41.806Z,4.60
2018-09-21T04:43:11.613Z,5.10
2018-09-21T04:45:41.811Z,4.40
2018-09-21T04:48:11.927Z,4.60
2018-09-21T04:50:42.116Z,4.73
2018-09-21T04:53:11.789Z,5.13
2018-09-21T04:55:41.809Z,5.43
2018-09-21T04:58:11.824Z,5.30
2018-09-21T05:00:42.252Z,4.93
2018-09-21T05:03:12.441Z,5.20
2018-09-21T05:05:42.731Z,5.23
2018-09-21T05:08:13.367Z,5.07
2018-09-21T05:10:44.280Z,5.73
2018-09-21T05:13:14.133Z,4.83
2018-09-21T05:15:45.272Z,5.47
2018-09-21T05:18:15.360Z,5.80
2018-09-21T05:20:45.190Z,5.93
2018-09-21T05:23:15.461Z,5.57
2018-09-21T05:25:45.252Z,5.37
2018-09-21T05:28:18.350Z,5.40
2018-09-21T05:30:48.571Z,5.43
2018-09-21T05:33:18.045Z,6.20
2018-09-21T05:35:48.075Z,5.07
2018-09-21T05:38:17.937Z,5.80
2018-09-21T05:40:47.273Z,5.07
2018-09-21T05:43:16.886Z,5.13
2018-09-21T05:45:46.448Z,5.30
2018-09-21T05:48:15.846Z,5.80
2018-09-21T05:50:45.364Z,5.20
2018-09-21T05:53:14.566Z,4.93
2018-09-21T05:55:44.152Z,5.17
2018-09-21T05:58:13.554Z,4.87
2018-09-21T06:00:42.960Z,5.67
2018-09-21T06:03:12.148Z,5.37
2018-09-21T06:05:41.670Z,5.33
2018-09-21T06:08:11.138Z,5.30
2018-09-21T06:10:40.918Z,5.47
2018-09-21T06:13:10.304Z,5.00
2018-09-21T06:15:39.558Z,5.37
2018-09-21T06:18:09.017Z,5.27
2018-09-21T06:20:38.519Z,4.90
2018-09-21T06:23:10.102Z,5.00
2018-09-21T06:25:39.441Z,4.90
2018-09-21T06:28:08.926Z,5.17
2018-09-21T06:30:38.452Z,4.20
2018-09-21T06:33:07.990Z,4.50
2018-09-21T06:35:37.572Z,4.30
2018-09-21T06:38:07.147Z,3.93
2018-09-21T06:40:37.044Z,4.13
2018-09-21T06:43:07.727Z,3.87
2018-09-21T06:45:37.304Z,3.93
2018-09-21T06:48:07.422Z,3.50
2018-09-21T06:50:39.902Z,3.40
2018-09-21T06:53:09.444Z,3.57
2018-09-21T06:55:40.964Z,3.33
2018-09-21T06:58:10.144Z,3.63
2018-09-21T07:00:39.642Z,3.40
2018-09-21T07:03:09.248Z,2.80
2018-09-21T07:05:38.987Z,2.93
2018-09-21T07:08:09.140Z,2.70
2018-09-21T07:10:39.244Z,2.80
2018-09-21T07:13:09.020Z,2.70
2018-09-21T07:15:38.546Z,2.60
2018-09-21T07:18:08.351Z,2.80
2018-09-21T07:20:37.854Z,2.43
2018-09-21T07:23:07.912Z,2.67
2018-09-21T07:25:37.484Z,2.70
2018-09-21T07:28:08.072Z,2.83
2018-09-21T07:30:37.610Z,2.20
2018-09-21T07:33:06.818Z,2.20
2018-09-21T07:35:36.338Z,2.50
2018-09-21T07:38:05.328Z,2.47
2018-09-21T07:40:34.740Z,2.77
2018-09-21T07:43:04.091Z,2.43
2018-09-21T07:45:33.732Z,2.60
2018-09-21T07:48:03.201Z,2.87
2018-09-21T07:50:32.674Z,2.47
2018-09-21T07:53:03.117Z,2.10
2018-09-21T07:55:32.857Z,2.30
2018-09-21T07:58:02.844Z,2.03
2018-09-21T08:00:32.923Z,2.27
2018-09-21T08:03:02.514Z,2.53
2018-09-21T08:05:33.109Z,2.53
2018-09-21T08:08:04.376Z,2.50
2018-09-21T08:10:34.396Z,2.40
2018-09-21T08:13:03.900Z,2.33
2018-09-21T08:15:33.280Z,2.37
2018-09-21T08:18:03.687Z,2.50
2018-09-21T08:20:33.185Z,2.63
2018-09-21T08:23:03.118Z,2.50
2018-09-21T08:25:33.616Z,3.20
2018-09-21T08:28:03.537Z,2.73
2018-09-21T08:30:33.176Z,3.20
2018-09-21T08:33:03.131Z,3.23
2018-09-21T08:35:33.320Z,3.67
2018-09-21T08:38:03.187Z,3.40
2018-09-21T08:40:34.487Z,3.83
2018-09-21T08:43:04.468Z,3.67
2018-09-21T08:45:34.628Z,3.43
2018-09-21T08:48:04.532Z,3.10
2018-09-21T08:50:35.682Z,2.90
2018-09-21T08:53:05.517Z,2.03
2018-09-21T08:55:35.787Z,2.23
2018-09-21T08:58:05.554Z,2.10
2018-09-21T09:00:35.580Z,2.13
2018-09-21T09:03:05.552Z,2.57
2018-09-21T09:05:35.638Z,2.17
2018-09-21T09:08:05.457Z,2.40
2018-09-21T09:10:35.443Z,1.97
2018-09-21T09:13:05.106Z,2.27
2018-09-21T09:15:38.811Z,2.10
2018-09-21T09:18:09.703Z,1.83
2018-09-21T09:20:44.281Z,2.57
2018-09-21T09:23:14.157Z,3.13
2018-09-21T09:25:43.874Z,2.10
2018-09-21T09:28:13.502Z,2.40
2018-09-21T09:30:43.584Z,2.63
2018-09-21T09:33:13.826Z,2.53
2018-09-21T09:35:43.694Z,2.53
2018-09-21T09:38:13.529Z,2.00
2018-09-21T09:40:43.001Z,2.30
2018-09-21T09:43:12.868Z,2.07
2018-09-21T09:45:42.248Z,2.00
2018-09-21T09:48:11.793Z,2.73
2018-09-21T09:50:42.940Z,2.07
2018-09-21T09:53:12.584Z,2.70
2018-09-21T09:55:44.978Z,2.37
2018-09-21T09:58:15.093Z,2.17
2018-09-21T10:00:49.530Z,3.07
2018-09-21T10:03:19.727Z,2.63
2018-09-21T10:05:49.427Z,2.90
2018-09-21T10:08:19.489Z,2.47
2018-09-21T10:10:48.951Z,2.70
2018-09-21T10:13:19.413Z,2.87
2018-09-21T10:15:49.985Z,2.70
2018-09-21T10:18:20.872Z,3.03
2018-09-21T10:20:51.038Z,2.80
2018-09-21T10:23:21.325Z,3.10
2018-09-21T10:25:51.209Z,2.50
2018-09-21T10:28:21.129Z,2.80
2018-09-21T10:30:50.707Z,2.90
2018-09-21T10:33:20.941Z,3.37
2018-09-21T10:35:50.510Z,2.93
2018-09-21T10:38:20.365Z,3.13
2018-09-21T10:40:49.993Z,2.73
2018-09-21T10:43:19.807Z,2.77
2018-09-21T10:45:49.855Z,3.67
2018-09-21T10:48:19.721Z,3.13
2018-09-21T10:50:50.444Z,3.20
2018-09-21T10:53:20.647Z,3.10
2018-09-21T10:55:52.356Z,3.60
2018-09-21T10:58:23.234Z,3.17
2018-09-21T11:00:53.157Z,3.03
2018-09-21T11:03:22.783Z,3.00
2018-09-21T11:05:53.633Z,2.87
2018-09-21T11:08:25.226Z,3.10
2018-09-21T11:11:01.800Z,3.10
2018-09-21T11:13:33.228Z,3.63
2018-09-21T11:16:03.216Z,3.40
2018-09-21T11:21:09.269Z,2.63
2018-09-21T11:23:38.676Z,3.90
2018-09-21T11:26:11.068Z,3.97
2018-09-21T11:28:40.796Z,3.07
2018-09-21T11:31:15.847Z,3.00
2018-09-21T11:33:50.415Z,3.20
2018-09-21T11:36:34.456Z,3.10
2018-09-21T11:39:06.988Z,2.50
2018-09-21T11:41:37.575Z,2.90
2018-09-21T11:44:12.257Z,2.80
2018-09-21T11:46:41.699Z,2.80
2018-09-21T11:49:11.777Z,2.67
2018-09-21T11:51:42.471Z,2.40
2018-09-21T11:54:22.568Z,2.70
2018-09-21T11:56:56.390Z,2.67
2018-09-21T11:59:27.652Z,3.03
2018-09-21T12:01:58.725Z,2.73
2018-09-21T12:04:32.940Z,3.23
2018-09-21T12:07:03.634Z,3.40
2018-09-21T12:09:34.338Z,3.10
2018-09-21T12:17:50.959Z,3.33
2018-09-21T12:20:47.415Z,2.63
2018-09-21T12:23:18.333Z,2.97
2018-09-21T12:25:48.117Z,2.53
2018-09-21T12:28:18.699Z,2.03
2018-09-21T12:30:48.339Z,2.30
2018-09-21T12:33:18.129Z,1.30
2018-09-21T12:35:47.935Z,1.53
2018-09-21T12:38:17.561Z,1.40
2018-09-21T12:40:48.557Z,1.20
2018-09-21T12:43:18.227Z,1.80
2018-09-21T12:45:47.988Z,1.60
2018-09-21T12:48:17.731Z,1.10
2018-09-21T12:50:47.695Z,1.37
2018-09-21T12:53:17.590Z,2.40
2018-09-21T12:55:47.580Z,3.60
2018-09-21T12:58:17.452Z,2.40
2018-09-21T13:00:51.865Z,2.50
2018-09-21T13:03:23.647Z,1.87
2018-09-21T13:05:57.599Z,1.30
2018-09-21T13:08:27.727Z,1.20
2018-09-21T13:10:57.647Z,1.43
2018-09-21T13:13:27.402Z,1.00
2018-09-21T13:15:58.274Z,1.50
2018-09-21T13:18:27.805Z,2.60
2018-09-21T13:20:57.175Z,2.40
2018-09-21T13:23:26.606Z,1.10
2018-09-21T13:25:56.641Z,1.60
2018-09-21T13:28:27.225Z,1.10
2018-09-21T13:30:57.092Z,1.17
2018-09-21T13:33:28.479Z,1.13
2018-09-21T13:35:58.791Z,1.00
2018-09-21T13:38:28.967Z,1.60
2018-09-21T13:40:59.445Z,1.30
2018-09-21T13:43:32.507Z,1.23
2018-09-21T13:46:02.329Z,1.60
2018-09-21T13:48:33.039Z,1.60
2018-09-21T13:51:02.843Z,1.10
2018-09-21T13:53:33.830Z,0.70
2018-09-21T13:56:04.274Z,1.10
2018-09-21T13:58:33.952Z,1.23
2018-09-21T14:01:04.775Z,1.03
2018-09-21T14:03:34.440Z,0.90
2018-09-21T14:06:11.535Z,1.10
2018-09-21T14:08:41.998Z,1.20
2018-09-21T14:11:11.639Z,1.17
2018-09-21T14:13:41.419Z,1.10
2018-09-21T14:16:12.460Z,1.00
2018-09-21T14:18:43.238Z,1.10
2018-09-21T14:21:13.741Z,0.93
2018-09-21T14:23:44.198Z,1.13
2018-09-21T14:26:14.232Z,1.40
2018-09-21T14:28:44.840Z,1.17
2018-09-21T14:31:14.544Z,1.47
2018-09-21T14:33:45.143Z,1.40
2018-09-21T14:36:15.996Z,1.83
2018-09-21T14:38:45.740Z,1.30
2018-09-21T14:41:16.023Z,1.30
2018-09-21T14:43:46.740Z,1.50
2018-09-21T14:46:16.750Z,1.40
2018-09-21T14:48:51.914Z,1.50
2018-09-21T14:51:23.271Z,1.27
2018-09-21T14:53:53.618Z,1.67
2018-09-21T14:56:24.063Z,1.67
2018-09-21T14:58:56.600Z,1.30
2018-09-21T15:01:27.184Z,1.50
2018-09-21T15:04:13.364Z,1.33
2018-09-21T15:06:44.336Z,1.40
2018-09-21T15:09:16.139Z,1.27
2018-09-21T15:11:46.825Z,1.37
2018-09-21T15:14:18.281Z,1.30
2018-09-21T15:16:50.558Z,1.10
2018-09-21T15:21:57.877Z,1.50
2018-09-21T15:24:29.843Z,1.33
2018-09-21T15:27:02.315Z,1.40
2018-09-21T15:29:34.914Z,1.17
2018-09-21T15:32:11.215Z,1.20
2018-09-21T15:34:45.047Z,1.50
2018-09-21T15:37:15.784Z,1.30
2018-09-21T15:39:51.003Z,1.57
2018-09-21T15:42:21.010Z,1.33
2018-09-21T15:44:51.320Z,1.50
2018-09-21T15:47:22.432Z,1.17
2018-09-21T15:49:53.959Z,1.30
2018-09-21T15:52:24.797Z,1.47
2018-09-21T15:54:56.061Z,1.03
2018-09-21T15:57:29.337Z,1.30
2018-09-21T16:00:00.251Z,1.60
2018-09-21T16:02:36.219Z,1.37
2018-09-21T16:05:06.723Z,0.90
2018-09-21T16:07:45.614Z,1.50
2018-09-21T16:10:18.065Z,1.30
2018-09-21T16:12:49.108Z,1.20
2018-09-21T16:15:19.260Z,1.30
2018-09-21T16:17:50.680Z,1.30
2018-09-21T16:20:22.129Z,1.53
2018-09-21T16:22:54.825Z,1.37
2018-09-21T16:25:24.983Z,1.57
2018-09-21T16:27:55.169Z,0.93
2018-09-21T16:30:26.541Z,1.30
2018-09-21T16:32:56.904Z,1.00
2018-09-21T16:35:29.464Z,1.50
2018-09-21T16:38:00.293Z,1.10
2018-09-21T16:40:31.372Z,0.90
2018-09-21T16:43:01.004Z,1.03
2018-09-21T16:45:31.875Z,1.10
2018-09-21T16:48:06.554Z,1.17
2018-09-21T16:50:37.275Z,1.70
2018-09-21T16:53:08.685Z,1.40
2018-09-21T16:55:40.615Z,1.43
2018-09-21T16:58:10.805Z,1.63
2018-09-21T17:00:42.388Z,1.30
2018-09-21T17:03:12.603Z,1.20
2018-09-21T17:05:42.912Z,1.43
2018-09-21T17:08:16.566Z,1.50
2018-09-21T17:10:49.545Z,1.20
2018-09-21T17:13:21.067Z,1.20
2018-09-21T17:15:51.723Z,1.20
2018-09-21T17:18:22.103Z,1.50
2018-09-21T17:20:58.983Z,1.47
2018-09-21T17:23:29.168Z,1.33
2018-09-21T17:26:00.122Z,1.50
2018-09-21T17:28:30.514Z,1.80
2018-09-21T17:31:01.485Z,1.70
2018-09-21T17:33:32.035Z,1.80
2018-09-21T17:36:01.755Z,1.37
2018-09-21T17:38:32.361Z,1.50
2018-09-21T17:41:03.774Z,1.43
2018-09-21T17:43:34.182Z,1.30
2018-09-21T17:46:04.603Z,1.27
2018-09-21T17:48:35.107Z,1.53
2018-09-21T17:51:05.247Z,1.20
2018-09-21T17:53:35.615Z,1.20
2018-09-21T17:56:08.145Z,1.53
2018-09-21T17:58:38.735Z,1.83
2018-09-21T18:01:14.827Z,1.20
2018-09-21T18:03:45.820Z,1.37
2018-09-21T18:06:16.805Z,1.20
2018-09-21T18:08:47.352Z,1.60
2018-09-21T18:11:18.395Z,1.73
2018-09-21T18:13:48.823Z,1.33
2018-09-21T18:16:18.800Z,1.50
2018-09-21T18:18:48.677Z,1.73
2018-09-21T18:21:19.380Z,1.30
2018-09-21T18:23:49.635Z,1.80
2018-09-21T18:26:20.120Z,1.73
2018-09-21T18:28:51.072Z,1.43
2018-09-21T18:31:21.714Z,1.70
2018-09-21T18:33:52.216Z,1.40
2018-09-21T18:36:22.760Z,1.43
2018-09-21T18:38:53.912Z,1.57
2018-09-21T18:41:24.452Z,1.80
2018-09-21T18:43:55.724Z,1.40
2018-09-21T18:46:27.231Z,1.83
2018-09-21T18:48:58.025Z,2.40
2018-09-21T18:51:28.205Z,1.53
2018-09-21T18:53:58.514Z,2.60
2018-09-21T18:56:29.938Z,2.23
2018-09-21T18:59:00.838Z,2.23
2018-09-21T19:01:31.833Z,1.70
2018-09-21T19:04:02.339Z,1.77
2018-09-21T19:06:32.705Z,1.60
2018-09-21T19:09:03.778Z,2.00
2018-09-21T19:11:33.418Z,1.97
2018-09-21T19:14:04.773Z,2.00
2018-09-21T19:16:34.796Z,2.10
2018-09-21T19:19:07.028Z,1.70
2018-09-21T19:21:41.528Z,1.80
2018-09-21T19:24:14.755Z,2.00
2018-09-21T19:26:51.650Z,1.90
2018-09-21T19:29:27.258Z,1.53
2018-09-21T19:32:01.452Z,1.90
2018-09-21T19:34:38.538Z,2.53
2018-09-21T19:37:18.343Z,1.60
2018-09-21T19:39:54.564Z,1.47
2018-09-21T19:45:13.067Z,2.30
2018-09-21T19:47:45.019Z,2.23
2018-09-21T19:50:19.118Z,2.20
2018-09-21T19:52:53.971Z,2.20
2018-09-21T19:55:28.692Z,1.80
2018-09-21T19:58:03.252Z,1.80
2018-09-21T20:01:08.838Z,1.77
2018-09-21T20:03:47.322Z,1.87
2018-09-21T20:06:23.693Z,1.70
2018-09-21T20:08:58.153Z,1.93
2018-09-21T20:11:36.407Z,2.13
2018-09-21T20:14:09.973Z,2.17
2018-09-21T20:16:43.447Z,1.63
2018-09-21T20:19:15.509Z,1.90
2018-09-21T20:22:53.594Z,2.33
2018-09-21T20:25:27.556Z,1.70
2018-09-21T20:28:03.619Z,1.70
2018-09-21T20:30:41.791Z,2.43
2018-09-21T20:33:20.479Z,1.77
2018-09-21T20:35:53.428Z,1.90
2018-09-21T20:38:25.284Z,2.00
2018-09-21T20:40:56.800Z,2.60
2018-09-21T20:43:28.648Z,2.20
2018-09-21T20:46:02.223Z,2.50
2018-09-21T20:48:36.311Z,2.37
2018-09-21T20:51:09.711Z,1.83
2018-09-21T20:53:43.907Z,2.13
2018-09-21T20:56:17.411Z,1.93
2018-09-21T20:58:53.216Z,2.00
2018-09-21T21:01:26.243Z,2.40
2018-09-21T21:03:59.896Z,2.63
2018-09-21T21:06:32.412Z,2.23
2018-09-21T21:09:05.284Z,2.60
2018-09-21T21:11:37.061Z,2.80
2018-09-21T21:14:09.957Z,2.40
2018-09-21T21:16:43.017Z,1.80
2018-09-21T21:19:15.673Z,2.07
2018-09-21T21:21:47.537Z,2.37
2018-09-21T21:24:19.807Z,2.97
2018-09-21T21:26:52.645Z,2.87
2018-09-21T21:29:25.980Z,2.80
2018-09-21T21:31:58.424Z,1.90
2018-09-21T21:34:30.507Z,2.60
2018-09-21T21:37:03.007Z,2.47
2018-09-21T21:39:35.149Z,2.40
2018-09-21T21:42:07.041Z,2.60
2018-09-21T21:44:39.783Z,2.83
2018-09-21T21:47:11.767Z,2.20
2018-09-21T21:49:48.101Z,2.70
2018-09-21T21:52:20.826Z,2.60
2018-09-21T21:54:52.525Z,2.50
2018-09-21T21:57:25.023Z,2.57
2018-09-21T21:59:57.435Z,2.60
2018-09-21T22:02:34.106Z,2.53
2018-09-21T22:05:09.453Z,3.23
2018-09-21T22:07:41.677Z,2.57
2018-09-21T22:10:14.769Z,2.93
2018-09-21T22:12:52.103Z,2.70
2018-09-21T22:15:23.289Z,2.67
2018-09-21T22:17:53.887Z,2.73
2018-09-21T22:20:25.690Z,3.97
2018-09-21T22:22:58.264Z,3.00
2018-09-21T22:25:29.500Z,3.00
2018-09-21T22:28:06.355Z,3.10
2018-09-21T22:30:37.853Z,3.00
2018-09-21T22:33:10.710Z,2.90
2018-09-21T22:35:41.542Z,2.93
2018-09-21T22:38:13.177Z,3.07
2018-09-21T22:40:45.142Z,2.80
2018-09-21T22:43:17.011Z,2.80
2018-09-21T22:45:48.301Z,2.70
2018-09-21T22:48:19.949Z,2.57
2018-09-21T22:50:50.719Z,3.00
2018-09-21T22:53:23.786Z,3.20
2018-09-21T22:55:54.866Z,2.97
2018-09-21T22:58:26.678Z,3.10
2018-09-21T23:00:58.336Z,2.97
2018-09-21T23:03:29.287Z,3.07
2018-09-21T23:06:01.876Z,3.07
2018-09-21T23:08:33.360Z,3.53
2018-09-21T23:11:05.945Z,3.10
2018-09-21T23:13:36.296Z,3.03
2018-09-21T23:16:07.696Z,3.70
2018-09-21T23:18:38.800Z,3.27
2018-09-21T23:21:09.589Z,3.30
2018-09-21T23:23:43.913Z,3.67
2018-09-21T23:26:16.345Z,3.33
2018-09-21T23:28:47.087Z,2.90
2018-09-21T23:31:18.952Z,3.30
2018-09-21T23:33:50.058Z,3.00
2018-09-21T23:36:22.047Z,2.83
2018-09-21T23:38:53.110Z,3.10
2018-09-21T23:41:26.925Z,2.90
2018-09-21T23:43:58.795Z,3.00
2018-09-21T23:46:30.944Z,2.77
2018-09-21T23:49:02.343Z,3.17
2018-09-21T23:51:33.799Z,2.70
2018-09-21T23:54:05.582Z,3.00
2018-09-21T23:56:36.931Z,3.50
2018-09-21T23:59:09.587Z,3.07
